createdAt,value
2018-11-20T00:00:41.889Z,32.07
2018-11-20T00:03:48.994Z,35.80
2018-11-20T00:06:24.903Z,29.52
2018-11-20T00:09:06.455Z,29.95
2018-11-20T00:12:05.454Z,32.87
2018-11-20T00:15:05.854Z,28.10
2018-11-20T00:17:48.422Z,31.80
2018-11-20T00:20:39.449Z,36.35
2018-11-20T00:23:17.993Z,27.45
2018-11-20T00:26:09.126Z,25.08
2018-11-20T00:29:12.479Z,28.30
2018-11-20T00:31:59.540Z,25.95
2018-11-20T00:34:50.369Z,28.50
2018-11-20T00:37:36.885Z,27.93
2018-11-20T00:40:30.603Z,39.53
2018-11-20T00:43:21.827Z,33.10
2018-11-20T00:46:18.839Z,28.13
2018-11-20T00:49:11.593Z,32.73
2018-11-20T00:51:51.429Z,36.50
2018-11-20T00:54:38.298Z,25.85
2018-11-20T00:57:24.485Z,31.17
2018-11-20T01:00:02.295Z,34.30
2018-11-20T01:02:48.970Z,34.17
2018-11-20T01:05:28.304Z,31.87
2018-11-20T01:08:15.476Z,30.43
2018-11-20T01:10:58.249Z,30.40
2018-11-20T01:13:41.511Z,29.07
2018-11-20T01:16:29.713Z,30.63
2018-11-20T01:19:16.567Z,25.33
2018-11-20T01:22:07.605Z,34.27
2018-11-20T01:25:02.423Z,28.47
2018-11-20T01:27:57.485Z,30.05
2018-11-20T01:30:51.749Z,32.57
2018-11-20T01:33:38.519Z,35.83
2018-11-20T01:36:28.722Z,33.47
2018-11-20T01:39:19.414Z,27.45
2018-11-20T01:42:02.122Z,32.47
2018-11-20T01:44:50.310Z,24.37
2018-11-20T01:47:44.180Z,35.90
2018-11-20T01:50:32.374Z,37.40
2018-11-20T01:53:16.373Z,34.20
2018-11-20T01:55:58.606Z,31.43
2018-11-20T01:58:48.423Z,30.70
2018-11-20T02:01:35.311Z,36.90
2018-11-20T02:04:27.559Z,26.25
2018-11-20T02:07:14.574Z,38.10
2018-11-20T02:10:02.778Z,30.73
2018-11-20T02:13:09.075Z,37.75
2018-11-20T02:15:53.947Z,32.60
2018-11-20T02:19:00.559Z,33.83
2018-11-20T02:21:53.880Z,33.92
2018-11-20T02:24:47.926Z,26.13
2018-11-20T02:27:42.047Z,37.20
2018-11-20T02:30:35.780Z,33.80
2018-11-20T02:33:29.966Z,41.63
2018-11-20T02:36:16.900Z,32.50
2018-11-20T02:39:17.095Z,39.60
2018-11-20T02:42:12.762Z,33.70
2018-11-20T02:44:59.640Z,33.80
2018-11-20T02:47:50.584Z,37.73
2018-11-20T02:50:37.426Z,45.90
2018-11-20T02:53:38.306Z,45.07
2018-11-20T02:56:37.678Z,28.17
2018-11-20T02:59:24.640Z,31.17
2018-11-20T03:02:19.028Z,37.20
2018-11-20T03:05:06.003Z,31.60
2018-11-20T03:08:00.987Z,32.00
2018-11-20T03:10:55.292Z,35.35
2018-11-20T03:13:46.268Z,37.05
2018-11-20T03:16:26.602Z,30.33
2018-11-20T03:19:04.176Z,40.73
2018-11-20T03:21:52.389Z,33.67
2018-11-20T03:24:39.327Z,35.95
2018-11-20T03:27:27.513Z,32.20
2018-11-20T03:30:56.539Z,33.93
2018-11-20T03:33:54.446Z,29.12
2018-11-20T03:36:54.697Z,30.63
2018-11-20T03:39:40.790Z,33.28
2018-11-20T03:42:22.812Z,33.40
2018-11-20T03:45:10.036Z,33.48
2018-11-20T03:48:02.281Z,38.25
2018-11-20T03:50:59.223Z,33.70
2018-11-20T03:53:36.575Z,31.50
2018-11-20T03:56:33.716Z,33.33
2018-11-20T03:59:20.359Z,33.40
2018-11-20T04:01:59.045Z,34.98
2018-11-20T04:04:41.680Z,39.40
2018-11-20T04:07:48.920Z,40.78
2018-11-20T04:10:35.169Z,32.30
2018-11-20T04:13:21.769Z,33.95
2018-11-20T04:16:03.065Z,35.57
2018-11-20T04:18:49.706Z,29.37
2018-11-20T04:21:37.348Z,31.80
2018-11-20T04:24:28.914Z,34.25
2018-11-20T04:27:20.201Z,37.63
2018-11-20T04:30:44.888Z,32.48
2018-11-20T04:33:56.965Z,33.58
2018-11-20T04:36:39.648Z,35.63
2018-11-20T04:39:27.850Z,30.50
2018-11-20T04:42:07.634Z,33.18
2018-11-20T04:44:55.778Z,38.92
2018-11-20T04:47:57.197Z,30.53
2018-11-20T04:50:34.198Z,33.43
2018-11-20T04:53:26.378Z,29.95
2018-11-20T04:56:13.388Z,37.30
2018-11-20T04:58:58.456Z,33.58
2018-11-20T05:01:52.227Z,30.37
2018-11-20T05:04:38.838Z,45.43
2018-11-20T05:07:15.570Z,32.30
2018-11-20T05:10:02.472Z,36.90
2018-11-20T05:13:03.040Z,37.60
2018-11-20T05:15:49.877Z,37.67
2018-11-20T05:18:53.073Z,35.60
2018-11-20T05:21:59.419Z,40.83
2018-11-20T05:24:40.775Z,35.90
2018-11-20T05:27:19.005Z,32.00
2018-11-20T05:29:58.775Z,40.00
2018-11-20T05:32:52.018Z,34.87
2018-11-20T05:35:34.917Z,38.73
2018-11-20T05:38:11.984Z,38.10
2018-11-20T05:40:50.745Z,40.80
2018-11-20T05:43:51.993Z,33.33
2018-11-20T05:46:38.570Z,30.40
2018-11-20T05:49:35.663Z,37.13
2018-11-20T05:52:23.883Z,31.57
2018-11-20T05:55:17.727Z,34.15
2018-11-20T05:58:15.629Z,32.50
2018-11-20T06:01:09.959Z,33.67
2018-11-20T06:03:59.861Z,34.63
2018-11-20T06:06:43.411Z,29.18
2018-11-20T06:09:43.294Z,34.13
2018-11-20T06:12:27.068Z,34.20
2018-11-20T06:15:22.256Z,36.23
2018-11-20T06:18:22.323Z,28.33
2018-11-20T06:21:08.734Z,27.93
2018-11-20T06:23:56.912Z,27.60
2018-11-20T06:26:42.139Z,27.77
2018-11-20T06:29:29.423Z,32.00
2018-11-20T06:32:16.293Z,31.30
2018-11-20T06:35:03.331Z,31.50
2018-11-20T06:37:57.405Z,35.63
2018-11-20T06:40:36.224Z,32.00
2018-11-20T06:43:39.222Z,30.10
2018-11-20T06:46:43.194Z,29.15
2018-11-20T06:49:30.415Z,28.57
2018-11-20T06:52:21.261Z,29.80
2018-11-20T06:55:24.345Z,32.00
2018-11-20T06:58:18.679Z,26.17
2018-11-20T07:01:06.966Z,32.07
2018-11-20T07:03:50.672Z,28.30
2018-11-20T07:06:34.939Z,23.07
2018-11-20T07:09:22.164Z,26.20
2018-11-20T07:12:10.355Z,20.43
2018-11-20T07:15:04.607Z,27.07
2018-11-20T07:17:52.778Z,26.87
2018-11-20T07:20:43.758Z,27.43
2018-11-20T07:23:31.931Z,26.93
2018-11-20T07:26:09.065Z,34.40
2018-11-20T07:29:15.390Z,22.30
2018-11-20T07:32:12.442Z,30.37
2018-11-20T07:34:56.808Z,20.65
2018-11-20T07:37:45.185Z,23.42
2018-11-20T07:40:33.530Z,23.30
2018-11-20T07:43:20.238Z,25.12
2018-11-20T07:46:06.910Z,28.40
2018-11-20T07:49:01.318Z,23.18
2018-11-20T07:51:55.619Z,24.80
2018-11-20T07:54:41.029Z,21.57
2018-11-20T07:57:47.430Z,16.00
2018-11-20T08:00:25.481Z,19.33
2018-11-20T08:03:03.049Z,23.90
2018-11-20T08:05:50.589Z,22.95
2018-11-20T08:08:50.827Z,23.60
2018-11-20T08:11:54.228Z,16.13
2018-11-20T08:14:57.318Z,19.17
2018-11-20T08:17:48.299Z,23.40
2018-11-20T08:20:55.344Z,24.23
2018-11-20T08:23:36.176Z,22.70
2018-11-20T08:26:24.955Z,32.13
2018-11-20T08:29:12.601Z,27.50
2018-11-20T08:32:18.804Z,21.40
2018-11-20T08:35:08.506Z,21.93
2018-11-20T08:37:55.395Z,25.27
2018-11-20T08:40:55.794Z,31.10
2018-11-20T08:43:42.655Z,25.63
2018-11-20T08:46:29.626Z,33.95
2018-11-20T08:49:16.417Z,28.60
2018-11-20T08:52:08.359Z,35.83
2018-11-20T08:54:57.010Z,34.67
2018-11-20T08:57:47.963Z,35.60
2018-11-20T09:00:33.859Z,35.33
2018-11-20T09:03:22.076Z,27.73
2018-11-20T09:06:10.997Z,34.18
2018-11-20T09:08:59.832Z,26.06
2018-11-20T09:11:52.815Z,33.38
2018-11-20T09:14:40.991Z,32.80
2018-11-20T09:17:44.313Z,32.87
2018-11-20T09:20:31.166Z,33.10
2018-11-20T09:23:22.077Z,26.62
2018-11-20T09:26:05.472Z,36.63
2018-11-20T09:29:02.862Z,22.83
2018-11-20T09:32:02.967Z,25.88
2018-11-20T09:34:51.223Z,24.67
2018-11-20T09:37:37.832Z,29.48
2018-11-20T09:41:01.071Z,26.42
2018-11-20T09:44:00.534Z,24.23
2018-11-20T09:46:51.581Z,26.30
2018-11-20T09:49:30.159Z,21.55
2018-11-20T09:52:18.447Z,23.97
2018-11-20T09:55:18.403Z,23.70
2018-11-20T09:58:09.311Z,21.23
2018-11-20T10:00:57.063Z,20.97
2018-11-20T10:03:37.791Z,24.50
2018-11-20T10:06:28.382Z,16.10
2018-11-20T10:09:16.072Z,20.03
2018-11-20T10:12:03.086Z,19.43
2018-11-20T10:15:00.021Z,15.80
2018-11-20T10:17:56.297Z,14.50
2018-11-20T10:20:37.182Z,12.90
2018-11-20T10:23:46.827Z,14.13
2018-11-20T10:26:35.078Z,15.07
2018-11-20T10:29:40.404Z,11.97
2018-11-20T10:32:31.482Z,11.03
2018-11-20T10:35:18.572Z,14.45
2018-11-20T10:37:56.282Z,11.70
2018-11-20T10:40:43.000Z,10.57
2018-11-20T10:43:43.472Z,11.97
2018-11-20T10:46:31.733Z,13.20
2018-11-20T10:49:18.195Z,12.40
2018-11-20T10:52:22.729Z,10.40
2018-11-20T10:55:13.745Z,10.63
2018-11-20T10:58:16.843Z,14.60
2018-11-20T11:01:03.506Z,10.10
2018-11-20T11:04:06.854Z,10.82
2018-11-20T11:06:57.405Z,15.98
2018-11-20T11:09:44.912Z,15.60
2018-11-20T11:12:31.958Z,13.50
2018-11-20T11:15:17.593Z,12.20
2018-11-20T11:18:11.801Z,11.97
2018-11-20T11:21:18.285Z,10.03
2018-11-20T11:24:03.159Z,14.03
2018-11-20T11:26:49.876Z,7.40
2018-11-20T11:29:33.917Z,14.58
2018-11-20T11:32:20.642Z,15.90
2018-11-20T11:35:23.847Z,13.53
2018-11-20T11:38:00.329Z,17.12
2018-11-20T11:40:47.156Z,15.73
2018-11-20T11:43:38.023Z,13.63
2018-11-20T11:46:29.972Z,13.13
2018-11-20T11:49:16.503Z,9.80
2018-11-20T11:52:03.227Z,12.23
2018-11-20T11:54:44.276Z,10.38
2018-11-20T11:57:34.736Z,16.77
2018-11-20T12:00:23.064Z,13.22
2018-11-20T12:03:14.109Z,15.37
2018-11-20T12:06:06.355Z,11.03
2018-11-20T12:08:49.260Z,14.10
2018-11-20T12:11:35.888Z,10.07
2018-11-20T12:14:22.334Z,15.70
2018-11-20T12:17:16.497Z,13.73
2018-11-20T12:19:59.995Z,10.93
2018-11-20T12:22:47.259Z,10.98
2018-11-20T12:25:24.746Z,16.40
2018-11-20T12:28:32.758Z,13.10
2018-11-20T12:31:25.577Z,12.80
2018-11-20T12:34:12.204Z,15.30
2018-11-20T12:37:12.207Z,12.20
2018-11-20T12:40:07.095Z,11.60
2018-11-20T12:43:01.426Z,10.40
2018-11-20T12:46:03.251Z,11.03
2018-11-20T12:48:58.494Z,8.23
2018-11-20T12:51:49.806Z,10.60
2018-11-20T12:54:52.317Z,8.67
2018-11-20T12:57:31.918Z,11.90
2018-11-20T13:00:35.214Z,9.80
2018-11-20T13:03:30.767Z,9.00
2018-11-20T13:06:11.773Z,12.90
2018-11-20T13:08:51.694Z,11.60
2018-11-20T13:11:45.154Z,10.13
2018-11-20T13:14:33.361Z,11.53
2018-11-20T13:17:19.840Z,9.43
2018-11-20T13:20:08.172Z,7.67
2018-11-20T13:22:55.675Z,9.20
2018-11-20T13:25:45.979Z,12.30
2018-11-20T13:28:49.040Z,8.68
2018-11-20T13:31:35.937Z,10.23
2018-11-20T13:34:31.173Z,9.48
2018-11-20T13:37:18.524Z,12.90
2018-11-20T13:40:01.171Z,9.58
2018-11-20T13:43:05.404Z,11.30
2018-11-20T13:45:52.115Z,10.40
2018-11-20T13:48:43.141Z,9.83
2018-11-20T13:51:27.775Z,9.73
2018-11-20T13:54:14.710Z,7.83
2018-11-20T13:57:09.384Z,8.50
2018-11-20T14:00:05.615Z,12.95
2018-11-20T14:03:05.239Z,11.90
2018-11-20T14:05:48.813Z,12.75
2018-11-20T14:08:37.249Z,11.20
2018-11-20T14:11:20.220Z,18.82
2018-11-20T14:14:01.309Z,13.23
2018-11-20T14:16:58.439Z,14.00
2018-11-20T14:19:55.594Z,12.03
2018-11-20T14:22:52.435Z,12.80
2018-11-20T14:25:39.943Z,16.45
2018-11-20T14:28:27.085Z,13.93
2018-11-20T14:31:18.396Z,13.72
2018-11-20T14:34:05.585Z,15.25
2018-11-20T14:37:08.778Z,17.63
2018-11-20T14:39:55.352Z,16.70
2018-11-20T14:42:42.568Z,14.70
2018-11-20T14:45:23.673Z,14.53
2018-11-20T14:48:27.049Z,17.63
2018-11-20T14:51:13.877Z,12.90
2018-11-20T14:53:53.302Z,15.85
2018-11-20T14:56:37.526Z,15.08
2018-11-20T14:59:24.228Z,16.23
2018-11-20T15:02:09.908Z,18.33
2018-11-20T15:05:13.168Z,16.43
2018-11-20T15:08:01.377Z,17.23
2018-11-20T15:10:48.244Z,15.30
2018-11-20T15:13:45.751Z,17.87
2018-11-20T15:16:34.867Z,15.50
2018-11-20T15:19:17.445Z,16.25
2018-11-20T15:22:20.974Z,17.60
2018-11-20T15:24:57.712Z,15.00
2018-11-20T15:27:44.469Z,16.23
2018-11-20T15:30:26.328Z,15.80
2018-11-20T15:33:14.539Z,18.65
2018-11-20T15:36:08.734Z,13.20
2018-11-20T15:39:11.974Z,17.17
2018-11-20T15:42:18.457Z,17.73
2018-11-20T15:45:16.269Z,18.23
2018-11-20T15:48:03.037Z,17.87
2018-11-20T15:50:41.229Z,18.13
2018-11-20T15:53:44.538Z,21.77
2018-11-20T15:56:31.274Z,19.20
2018-11-20T15:59:21.773Z,19.83
2018-11-20T16:02:08.658Z,18.97
2018-11-20T16:05:12.562Z,16.32
2018-11-20T16:07:58.507Z,21.87
2018-11-20T16:10:49.189Z,15.70
2018-11-20T16:13:40.587Z,20.68
2018-11-20T16:16:24.811Z,14.73
2018-11-20T16:19:12.975Z,15.28
2018-11-20T16:21:49.256Z,17.40
2018-11-20T16:24:37.454Z,15.40
2018-11-20T16:27:34.896Z,18.23
2018-11-20T16:30:27.937Z,20.97
2018-11-20T16:33:18.340Z,18.70
2018-11-20T16:36:24.573Z,16.67
2018-11-20T16:39:12.864Z,19.80
2018-11-20T16:42:06.817Z,21.12
2018-11-20T16:44:51.267Z,18.02
2018-11-20T16:47:43.055Z,17.25
2018-11-20T16:50:28.828Z,20.50
2018-11-20T16:53:21.606Z,17.03
2018-11-20T16:56:18.665Z,16.87
2018-11-20T16:59:05.739Z,20.33
2018-11-20T17:01:53.158Z,23.90
2018-11-20T17:04:41.376Z,19.37
2018-11-20T17:07:34.786Z,21.07
2018-11-20T17:10:21.611Z,20.25
2018-11-20T17:13:06.145Z,21.87
2018-11-20T17:15:58.260Z,23.40
2018-11-20T17:18:49.482Z,21.87
2018-11-20T17:21:35.325Z,21.10
2018-11-20T17:24:38.725Z,21.53
2018-11-20T17:27:25.582Z,18.03
2018-11-20T17:30:17.060Z,21.20
2018-11-20T17:33:05.577Z,19.50
2018-11-20T17:36:12.334Z,22.17
2018-11-20T17:38:59.415Z,25.82
2018-11-20T17:41:37.155Z,21.10
2018-11-20T17:44:38.033Z,19.42
2018-11-20T17:47:23.991Z,17.47
2018-11-20T17:50:21.010Z,21.40
2018-11-20T17:53:21.102Z,21.35
2018-11-20T17:56:09.389Z,21.97
2018-11-20T17:58:56.276Z,19.73
2018-11-20T18:01:52.226Z,20.08
2018-11-20T18:04:39.336Z,21.17
2018-11-20T18:07:33.662Z,23.60
2018-11-20T18:10:16.810Z,20.57
2018-11-20T18:13:13.802Z,23.98
2018-11-20T18:16:02.026Z,22.62
2018-11-20T18:18:50.292Z,21.37
2018-11-20T18:21:43.811Z,28.25
2018-11-20T18:24:23.733Z,21.75
2018-11-20T18:27:18.739Z,26.17
2018-11-20T18:30:02.415Z,25.63
2018-11-20T18:32:56.610Z,23.57
2018-11-20T18:35:47.695Z,27.60
2018-11-20T18:38:35.090Z,23.87
2018-11-20T18:41:25.842Z,23.15
2018-11-20T18:44:22.846Z,21.93
2018-11-20T18:47:09.861Z,22.75
2018-11-20T18:50:04.450Z,22.58
2018-11-20T18:52:43.821Z,26.33
2018-11-20T18:55:32.019Z,25.50
2018-11-20T18:58:29.629Z,25.97
2018-11-20T19:01:24.742Z,29.70
2018-11-20T19:04:15.961Z,26.42
2018-11-20T19:07:02.712Z,24.47
2018-11-20T19:10:03.541Z,34.53
2018-11-20T19:13:07.027Z,27.40
2018-11-20T19:15:57.874Z,24.90
2018-11-20T19:18:44.841Z,25.92
2018-11-20T19:21:35.607Z,28.37
2018-11-20T19:24:22.713Z,28.75
2018-11-20T19:27:10.019Z,22.75
2018-11-20T19:30:07.141Z,27.90
2018-11-20T19:33:04.029Z,26.40
2018-11-20T19:36:07.302Z,23.05
2018-11-20T19:38:54.282Z,27.90
2018-11-20T19:41:52.126Z,23.77
2018-11-20T19:44:49.380Z,22.93
2018-11-20T19:47:33.810Z,28.57
2018-11-20T19:50:20.841Z,28.70
2018-11-20T19:53:09.123Z,26.37
2018-11-20T19:55:56.293Z,23.77
2018-11-20T19:58:43.029Z,29.73
2018-11-20T20:01:44.274Z,22.37
2018-11-20T20:04:32.844Z,23.03
2018-11-20T20:07:19.759Z,23.90
2018-11-20T20:10:12.437Z,27.32
2018-11-20T20:12:52.150Z,30.30
2018-11-20T20:15:37.130Z,30.63
2018-11-20T20:18:34.761Z,21.57
2018-11-20T20:21:40.878Z,29.90
2018-11-20T20:24:53.460Z,28.75
2018-11-20T20:27:49.424Z,24.93
2018-11-20T20:30:45.407Z,29.20
2018-11-20T20:33:50.848Z,25.02
2018-11-20T20:36:56.644Z,28.77
2018-11-20T20:39:32.313Z,24.33
2018-11-20T20:42:18.040Z,34.83
2018-11-20T20:45:04.467Z,25.70
2018-11-20T20:47:54.153Z,21.60
2018-11-20T20:50:40.956Z,22.43
2018-11-20T20:53:28.303Z,26.80
2018-11-20T20:56:18.645Z,28.98
2018-11-20T20:59:06.060Z,20.80
2018-11-20T21:01:58.998Z,25.43
2018-11-20T21:04:49.044Z,30.82
2018-11-20T21:07:45.302Z,26.07
2018-11-20T21:10:31.096Z,23.43
2018-11-20T21:13:10.858Z,27.00
2018-11-20T21:15:54.084Z,28.60
2018-11-20T21:18:40.280Z,28.23
2018-11-20T21:21:27.641Z,21.33
2018-11-20T21:24:14.361Z,22.75
2018-11-20T21:27:04.690Z,27.10
2018-11-20T21:30:01.127Z,26.25
2018-11-20T21:32:55.354Z,21.70
2018-11-20T21:35:52.741Z,26.52
2018-11-20T21:38:56.218Z,18.82
2018-11-20T21:41:42.397Z,23.80
2018-11-20T21:44:38.419Z,20.07
2018-11-20T21:47:24.120Z,28.55
2018-11-20T21:50:30.518Z,26.07
2018-11-20T21:53:17.144Z,21.73
2018-11-20T21:56:11.451Z,21.20
2018-11-20T21:59:01.620Z,25.83
2018-11-20T22:01:47.843Z,25.63
2018-11-20T22:04:33.998Z,19.27
2018-11-20T22:07:21.395Z,19.23
2018-11-20T22:10:17.843Z,26.45
2018-11-20T22:13:09.669Z,24.23
2018-11-20T22:15:55.618Z,24.02
2018-11-20T22:18:41.363Z,23.77
2018-11-20T22:21:26.130Z,21.77
2018-11-20T22:24:12.200Z,26.80
2018-11-20T22:27:05.421Z,22.98
2018-11-20T22:30:01.614Z,26.97
2018-11-20T22:32:51.763Z,22.22
2018-11-20T22:35:49.929Z,25.72
2018-11-20T22:38:26.716Z,24.67
2018-11-20T22:41:13.034Z,25.17
2018-11-20T22:43:51.176Z,22.47
2018-11-20T22:46:50.900Z,23.25
2018-11-20T22:49:49.989Z,22.50
2018-11-20T22:52:22.990Z,21.50
2018-11-20T22:55:22.225Z,22.00
2018-11-20T22:57:57.320Z,24.60
2018-11-20T23:00:56.706Z,24.70
2018-11-20T23:03:55.936Z,26.80
2018-11-20T23:06:42.683Z,27.57
2018-11-20T23:09:11.638Z,20.13
2018-11-20T23:11:40.112Z,20.80
2018-11-20T23:14:08.324Z,25.00
2018-11-20T23:16:36.792Z,22.42
2018-11-20T23:19:05.462Z,25.20
2018-11-20T23:21:33.634Z,21.20
2018-11-20T23:24:01.850Z,26.52
2018-11-20T23:26:30.042Z,23.00
2018-11-20T23:28:58.294Z,22.25
2018-11-20T23:31:26.533Z,25.30
2018-11-20T23:33:54.749Z,24.40
2018-11-20T23:36:26.425Z,26.00
2018-11-20T23:38:54.601Z,20.70
2018-11-20T23:41:22.808Z,20.10
2018-11-20T23:43:51.599Z,21.97
2018-11-20T23:46:19.808Z,23.17
2018-11-20T23:48:47.995Z,28.83
2018-11-20T23:51:19.348Z,22.90
2018-11-20T23:53:47.568Z,25.33
2018-11-20T23:56:16.486Z,23.62
2018-11-20T23:58:44.691Z,21.67
